Wednesday, April 16, 2014
19:30 UTC
  |  Log In   |  Register Free
Airport Search:

Madison Airport
(I39)

Madison Airport Diagram
No Airport Diagram Available

FAA data valid effective April 3, 2014 until May 29, 2014 (unless otherwise noted).

 
 
 
 
 
 
 
 
 
 
 
 
 
 

Current Aviation Weather for Madison Airport (I39)

The most recent METAR observation for KDVK was updated at: 1855 UTC
METAR Summary (Translated METAR)
KDVK
161855Z AUTO 09008KT 10SM CLR 08/M03 A3032 RMK AO2
KLEX
(28.6 nm NE from KDVK)
161854Z 09012G21KT 10SM CLR 11/M07 A3033 RMK AO2 SLP275 T01061067
TAF Summary (Translated TAF)
KLEX
(28.6 nm NE from KDVK)
161720Z 1618/1718 10010KT P6SM FEW250 FM170000 VRB05KT P6SM SCT250 FM171400 18009KT P6SM SCT250
KSME
(32.3 nm SE from KDVK)
161722Z 1618/1718 11006KT P6SM SCT250
  Airport Weather Conditions for I39

Current weather conditions are
not available for I39


The nearest NOAA weather station
is at DVK, (21 nm SW from I39)
  
 Current Weather at DVK
48° F
Fair
East winds at 8.1 mph
DVK NOAA Radar

Pressure: 30.34 in
Humidity: 43%
Wind: East at 8.1 MPH (7 KT)
Dew Point: 26.6°F
Visibility: 10.00 mi


Airport Weather Forecast for I39

Translated METAR and TAF for KDVK
Translated METAR for KDVK (1930 UTC 16 April 2014)
found at http://aviationweather.gov/adds/metars/
 
METAR text: KDVK 161915Z AUTO 09004KT 10SM CLR 09/M03 A3032 RMK AO2
Conditions at: KDVK (DANVILLE , KY, US) observed 1915 UTC 16 April 2014
Temperature: 9.0°C (48°F)
Dewpoint: -3.0°C (27°F) [RH = 43%]
Pressure (altimeter): 30.32 inches Hg (1026.8 mb)
Winds: from the E (90 degrees) at 5 MPH (4 knots; 2.1 m/s)
Visibility: 10 or more miles (16+ km)
Ceiling: at least 12,000 feet AGL
Clouds: sky clear below 12,000 feet AGL
Weather: automated observation with no human augmentation;
there may or may not be significant weather present at this time
Translated TAF for KDVK

There is no translated TAF available for this airport

Find All Airport Services Find A Hotel Find A Rental Car Find A Golf Course Find A Restaurant $100 Hamburger



FBO's on the Field
FBO Company Facility Photos Services Transportation Aviation Fuel Prices: Prices include tax
Catering Weather Repair Courtesy Rental Type 100LL JetA JetA+ MOGAS 8087
 
Eastern Kentucky University

This FBO has not yet been rated
FS:Shell
Last Updated: Mar-21
Login to update fuel prices
SS:
Contact Eastern Kentucky UniversityMore FBO Information
 
Add another FBO Facility Photos Catering Weather Repair Courtesy Rental Type 100LL JetA JetA+ MOGAS 8087
Services Transportation Aviation Fuel Prices: Prices include tax


GlobalAir.com Airport Resource Center model-print
model-print
model-print
model-print